Time;durP1;ratioP1;P1;durP2;ratioP2;P2;SDS_P1;SDS_P2;PMS_P1;PMS_P2;Temp;Humidity;BMP_temperature;BMP_pressure;BME280_temperature;BME280_humidity;BME280_pressure;Samples;Min_cycle;Max_cycle;Signal;HPM_P1;HPM_P2
2023/09/28 00:01:00;;;;;;;36.55;12.10;;;;;;;;;;6217398;23;20035;-53
2023/09/28 00:03:27;;;;;;;39.97;13.20;;;;;;;;;;6244086;22;20118;-55
2023/09/28 00:05:54;;;;;;;39.97;14.00;;;;;;;;;;6247699;22;20058;-55
2023/09/28 00:08:21;;;;;;;37.83;12.55;;;;;;;;;;6248106;22;20038;-56
2023/09/28 00:10:48;;;;;;;36.65;13.30;;;;;;;;;;6275417;22;20012;-57
2023/09/28 00:13:14;;;;;;;43.72;14.32;;;;;;;;;;6247735;22;20020;-51
2023/09/28 00:15:41;;;;;;;64.95;15.57;;;;;;;;;;6274929;22;20345;-53
2023/09/28 00:18:08;;;;;;;62.70;15.52;;;;;;;;;;6247576;22;20027;-52
2023/09/28 00:20:35;;;;;;;83.50;16.92;;;;;;;;;;6274850;22;20022;-54
2023/09/28 00:23:03;;;;;;;35.70;13.50;;;;;;;;;;6223128;22;20020;-54
2023/09/28 00:25:30;;;;;;;36.95;13.27;;;;;;;;;;6247428;22;20055;-53
2023/09/28 00:27:57;;;;;;;35.65;14.25;;;;;;;;;;6247574;22;20062;-55
2023/09/28 00:30:26;;;;;;;47.13;15.18;;;;;;;;;;6222672;22;20397;-55
2023/09/28 00:32:53;;;;;;;55.25;16.20;;;;;;;;;;6275041;22;20012;-53
2023/09/28 00:35:21;;;;;;;36.55;13.57;;;;;;;;;;6275432;22;20011;-56
2023/09/28 00:37:49;;;;;;;52.00;15.20;;;;;;;;;;6247981;22;20043;-51
2023/09/28 00:40:18;;;;;;;42.03;14.25;;;;;;;;;;6247564;22;20019;-55
2023/09/28 00:42:50;;;;;;;47.95;14.88;;;;;;;;;;6274396;22;20061;-53
2023/09/28 00:45:17;;;;;;;42.35;14.30;;;;;;;;;;6248190;22;20023;-52
2023/09/28 00:47:45;;;;;;;69.43;15.00;;;;;;;;;;6274246;22;20352;-54
2023/09/28 00:50:17;;;;;;;42.75;14.27;;;;;;;;;;6274867;22;20031;-53
2023/09/28 00:52:46;;;;;;;47.60;13.65;;;;;;;;;;6222554;22;20023;-52
2023/09/28 00:55:15;;;;;;;49.67;17.42;;;;;;;;;;6274694;22;20022;-52
2023/09/28 00:57:42;;;;;;;46.33;14.15;;;;;;;;;;6247426;22;20015;-53
2023/09/28 01:00:18;;;;;;;49.10;14.45;;;;;;;;;;6274875;22;20091;-51
2023/09/28 01:02:48;;;;;;;50.25;14.27;;;;;;;;;;6247431;22;20016;-53
2023/09/28 01:05:14;;;;;;;62.58;15.25;;;;;;;;;;6274691;22;20019;-53
2023/09/28 01:07:41;;;;;;;57.58;13.40;;;;;;;;;;6274538;22;20016;-54
2023/09/28 01:10:12;;;;;;;28.40;12.82;;;;;;;;;;6247214;22;20023;-54
2023/09/28 01:12:39;;;;;;;41.17;13.48;;;;;;;;;;6247204;22;20107;-54
2023/09/28 01:15:09;;;;;;;50.58;14.02;;;;;;;;;;6222174;22;20019;-52
2023/09/28 01:17:36;;;;;;;78.78;15.38;;;;;;;;;;6222315;22;20020;-56
2023/09/28 01:20:10;;;;;;;47.72;13.20;;;;;;;;;;6247933;22;20016;-53
2023/09/28 01:22:36;;;;;;;;;;;;;;;;;;6275096;22;20024;-55
2023/09/28 01:25:03;;;;;;;35.97;12.80;;;;;;;;;;6274324;22;20253;-53
2023/09/28 01:27:31;;;;;;;49.67;14.10;;;;;;;;;;6274258;22;20027;-51
2023/09/28 01:29:58;;;;;;;43.05;14.10;;;;;;;;;;6274293;22;20043;-52
2023/09/28 01:32:25;;;;;;;59.47;14.57;;;;;;;;;;6247512;22;20020;-54
2023/09/28 01:34:52;;;;;;;35.25;14.43;;;;;;;;;;6274758;22;20012;-56
2023/09/28 01:37:20;;;;;;;41.72;13.40;;;;;;;;;;6275405;22;20015;-53
2023/09/28 01:39:47;;;;;;;53.85;13.27;;;;;;;;;;6249398;22;20319;-54
2023/09/28 01:42:14;;;;;;;36.53;14.05;;;;;;;;;;6276053;22;20396;-52
2023/09/28 01:44:40;;;;;;;68.57;15.27;;;;;;;;;;6249383;22;20047;-53
2023/09/28 01:47:07;;;;;;;51.95;14.20;;;;;;;;;;6275982;22;20036;-54
2023/09/28 01:49:33;;;;;;;63.45;15.38;;;;;;;;;;6249239;22;20046;-55
2023/09/28 01:52:02;;;;;;;42.10;13.82;;;;;;;;;;6249174;22;20098;-54
2023/09/28 01:54:28;;;;;;;36.38;13.20;;;;;;;;;;6249187;22;20011;-51
2023/09/28 01:56:55;;;;;;;46.88;13.55;;;;;;;;;;6276152;22;20016;-56
2023/09/28 01:59:22;;;;;;;44.88;12.85;;;;;;;;;;6276738;22;20015;-59
2023/09/28 02:07:53;;;;;;;41.08;12.70;;;;;;;;;;6306213;22;20019;-52
2023/09/28 02:10:20;;;;;;;37.33;13.32;;;;;;;;;;6279925;22;20073;-56
2023/09/28 02:12:47;;;;;;;35.30;12.75;;;;;;;;;;6280343;22;20022;-55
2023/09/28 02:15:17;;;;;;;39.65;13.27;;;;;;;;;;6279728;22;20046;-52
2023/09/28 02:17:44;;;;;;;78.78;16.35;;;;;;;;;;6307508;22;20038;-53
2023/09/28 02:20:15;;;;;;;45.45;12.85;;;;;;;;;;6280558;22;20027;-53
2023/09/28 02:22:44;;;;;;;41.03;13.13;;;;;;;;;;6254589;22;20019;-53
2023/09/28 02:25:15;;;;;;;52.90;14.35;;;;;;;;;;6280387;22;20022;-53
2023/09/28 02:27:42;;;;;;;52.72;14.40;;;;;;;;;;6306825;22;20375;-54
2023/09/28 02:30:11;;;;;;;51.65;13.60;;;;;;;;;;6279827;22;20341;-53
2023/09/28 02:32:39;;;;;;;92.93;16.52;;;;;;;;;;6280014;22;20015;-52
2023/09/28 02:35:07;;;;;;;37.47;12.90;;;;;;;;;;6280208;22;20019;-55
2023/09/28 02:37:34;;;;;;;42.20;12.90;;;;;;;;;;6307169;22;20391;-53
2023/09/28 02:40:04;;;;;;;37.17;12.10;;;;;;;;;;6306712;22;20552;-51
2023/09/28 02:42:32;;;;;;;38.80;13.73;;;;;;;;;;6254485;22;20020;-50
2023/09/28 02:44:58;;;;;;;68.78;14.90;;;;;;;;;;6306931;22;20400;-52
2023/09/28 02:47:26;;;;;;;44.10;13.32;;;;;;;;;;6279770;22;20019;-53
2023/09/28 02:49:52;;;;;;;40.42;13.43;;;;;;;;;;6280170;22;20043;-53
2023/09/28 02:52:19;;;;;;;38.28;13.95;;;;;;;;;;6279118;22;20022;-54
2023/09/28 02:54:46;;;;;;;51.70;14.23;;;;;;;;;;6279256;22;20023;-51
2023/09/28 02:57:13;;;;;;;42.10;14.45;;;;;;;;;;6306173;22;20054;-52
2023/09/28 02:59:41;;;;;;;92.85;17.20;;;;;;;;;;6306627;22;20011;-52
2023/09/28 03:02:08;;;;;;;40.53;13.02;;;;;;;;;;6307811;22;20026;-56
2023/09/28 03:04:37;;;;;;;39.13;14.60;;;;;;;;;;6279904;22;20348;-55
2023/09/28 03:07:04;;;;;;;44.97;15.05;;;;;;;;;;6306631;22;20425;-51
2023/09/28 03:09:32;;;;;;;44.63;15.48;;;;;;;;;;6306354;22;20085;-55
2023/09/28 03:11:59;;;;;;;61.40;20.40;;;;;;;;;;6278583;22;20465;-54
2023/09/28 03:14:26;;;;;;;56.70;17.52;;;;;;;;;;6306832;22;20422;-56
2023/09/28 03:16:53;;;;;;;34.58;14.05;;;;;;;;;;6307200;22;20065;-55
2023/09/28 03:19:20;;;;;;;41.22;14.10;;;;;;;;;;6306736;22;20380;-49
2023/09/28 03:21:46;;;;;;;36.28;12.73;;;;;;;;;;6306264;22;20038;-54
2023/09/28 03:24:13;;;;;;;52.15;14.05;;;;;;;;;;6279153;22;20023;-51
2023/09/28 03:26:40;;;;;;;85.18;16.05;;;;;;;;;;6279302;22;20011;-52
2023/09/28 03:29:07;;;;;;;45.78;14.85;;;;;;;;;;6253942;22;20723;-55
2023/09/28 03:31:34;;;;;;;37.78;13.50;;;;;;;;;;6278717;22;20025;-53
2023/09/28 03:34:01;;;;;;;34.85;12.80;;;;;;;;;;6279360;22;20103;-51
2023/09/28 03:36:30;;;;;;;33.00;14.13;;;;;;;;;;6306963;22;20022;-56
2023/09/28 03:38:57;;;;;;;44.55;15.65;;;;;;;;;;6306721;22;20522;-54
2023/09/28 03:41:25;;;;;;;33.63;13.80;;;;;;;;;;6279090;22;20437;-56
2023/09/28 03:43:52;;;;;;;40.28;14.27;;;;;;;;;;6307347;22;20038;-52
2023/09/28 03:46:19;;;;;;;50.40;14.98;;;;;;;;;;6278769;22;20024;-54
2023/09/28 03:48:46;;;;;;;36.95;14.23;;;;;;;;;;6306365;22;20026;-53
2023/09/28 03:51:16;;;;;;;54.53;15.68;;;;;;;;;;6306537;22;20019;-55
2023/09/28 03:53:42;;;;;;;62.03;16.08;;;;;;;;;;6306720;22;20027;-53
2023/09/28 03:56:09;;;;;;;39.80;14.82;;;;;;;;;;6279388;22;20023;-53
2023/09/28 03:58:36;;;;;;;51.50;15.63;;;;;;;;;;6306490;22;20011;-55
2023/09/28 04:01:07;;;;;;;33.72;13.65;;;;;;;;;;6306092;22;20019;-55
2023/09/28 04:03:35;;;;;;;47.42;14.88;;;;;;;;;;6279272;22;20015;-50
2023/09/28 04:06:01;;;;;;;40.20;14.38;;;;;;;;;;6278965;22;20334;-52
2023/09/28 04:08:28;;;;;;;55.22;14.77;;;;;;;;;;6306310;22;20471;-52
2023/09/28 04:10:55;;;;;;;61.42;16.40;;;;;;;;;;6306321;22;20018;-53
2023/09/28 04:13:22;;;;;;;32.55;15.15;;;;;;;;;;6305675;22;20178;-51
2023/09/28 04:15:48;;;;;;;36.97;14.68;;;;;;;;;;6306032;22;20011;-56
2023/09/28 04:18:15;;;;;;;47.50;15.00;;;;;;;;;;6306095;22;20034;-50
2023/09/28 04:20:42;;;;;;;100.40;17.15;;;;;;;;;;6278660;22;20393;-55
2023/09/28 04:23:09;;;;;;;37.22;14.48;;;;;;;;;;6279109;22;20023;-54
2023/09/28 04:25:36;;;;;;;37.42;13.15;;;;;;;;;;6306126;22;20019;-52
2023/09/28 04:28:03;;;;;;;37.33;13.25;;;;;;;;;;6306036;22;20015;-54
2023/09/28 04:30:30;;;;;;;48.95;14.65;;;;;;;;;;6278693;22;20045;-54
2023/09/28 04:32:56;;;;;;;28.75;13.85;;;;;;;;;;6306221;22;20429;-53
2023/09/28 04:35:23;;;;;;;37.75;13.63;;;;;;;;;;6306439;22;20041;-57
2023/09/28 04:37:50;;;;;;;50.55;15.05;;;;;;;;;;6278151;22;20046;-53
2023/09/28 04:40:23;;;;;;;39.85;15.25;;;;;;;;;;6278665;22;20019;-53
2023/09/28 04:42:50;;;;;;;81.05;16.40;;;;;;;;;;6278624;22;20020;-53
2023/09/28 04:45:18;;;;;;;51.35;16.67;;;;;;;;;;6305754;22;20064;-51
2023/09/28 04:47:46;;;;;;;84.70;15.95;;;;;;;;;;6278187;22;20081;-56
2023/09/28 04:50:13;;;;;;;90.45;17.25;;;;;;;;;;6306022;22;20031;-51
2023/09/28 04:52:43;;;;;;;161.38;22.13;;;;;;;;;;6278429;22;20019;-52
2023/09/28 04:55:10;;;;;;;115.25;20.08;;;;;;;;;;6305226;22;20027;-51
2023/09/28 04:57:37;;;;;;;106.40;19.13;;;;;;;;;;6305439;22;20011;-52
2023/09/28 05:00:07;;;;;;;89.65;18.70;;;;;;;;;;6305897;22;20476;-54
2023/09/28 05:02:34;;;;;;;95.07;17.83;;;;;;;;;;6278633;22;20026;-54
2023/09/28 05:05:01;;;;;;;92.68;17.60;;;;;;;;;;6279156;22;20499;-50
2023/09/28 05:07:27;;;;;;;51.65;15.60;;;;;;;;;;6305677;22;20015;-56
2023/09/28 05:09:54;;;;;;;60.92;16.88;;;;;;;;;;6252207;22;20102;-51
2023/09/28 05:12:21;;;;;;;39.53;14.38;;;;;;;;;;6306111;22;20015;-53
2023/09/28 05:14:48;;;;;;;64.28;15.75;;;;;;;;;;6278090;22;20019;-52
2023/09/28 05:17:17;;;;;;;45.72;15.63;;;;;;;;;;6305970;22;20427;-54
2023/09/28 05:19:44;;;;;;;43.70;13.93;;;;;;;;;;6277893;22;20025;-53
2023/09/28 05:22:10;;;;;;;39.00;13.48;;;;;;;;;;6278584;22;20038;-51
2023/09/28 05:24:37;;;;;;;56.20;15.25;;;;;;;;;;6304972;22;20015;-54
2023/09/28 05:27:04;;;;;;;58.22;14.73;;;;;;;;;;6278057;22;20389;-51
2023/09/28 05:29:31;;;;;;;66.63;14.23;;;;;;;;;;6278140;22;20026;-50
2023/09/28 05:31:58;;;;;;;44.08;14.27;;;;;;;;;;6305299;22;20088;-53
2023/09/28 05:34:25;;;;;;;50.05;14.15;;;;;;;;;;6304996;22;20016;-51
2023/09/28 05:36:52;;;;;;;39.97;13.07;;;;;;;;;;6277887;22;20476;-54
2023/09/28 05:39:18;;;;;;;49.15;14.15;;;;;;;;;;6278009;22;20025;-53
2023/09/28 05:41:45;;;;;;;72.05;14.23;;;;;;;;;;6277619;22;20467;-54
2023/09/28 05:44:13;;;;;;;32.03;12.57;;;;;;;;;;6305671;22;20084;-52
2023/09/28 05:46:40;;;;;;;47.55;14.02;;;;;;;;;;6277161;22;20041;-54
2023/09/28 05:49:07;;;;;;;52.15;14.65;;;;;;;;;;6277344;22;20510;-53
2023/09/28 05:51:34;;;;;;;58.05;15.70;;;;;;;;;;6252633;22;20023;-52
2023/09/28 05:54:00;;;;;;;52.20;14.10;;;;;;;;;;6304960;22;20065;-54
2023/09/28 05:56:27;;;;;;;73.13;15.23;;;;;;;;;;6278008;22;20122;-54
2023/09/28 05:58:55;;;;;;;84.20;16.75;;;;;;;;;;6278072;22;20027;-52
2023/09/28 06:01:24;;;;;;;71.43;15.05;;;;;;;;;;6277799;22;20119;-53
2023/09/28 06:03:51;;;;;;;104.10;16.98;;;;;;;;;;6304772;22;20018;-54
2023/09/28 06:06:18;;;;;;;48.17;14.18;;;;;;;;;;6277920;22;20049;-52
2023/09/28 06:08:50;;;;;;;80.32;16.00;;;;;;;;;;6277511;22;20012;-55
2023/09/28 06:11:17;;;;;;;51.13;14.43;;;;;;;;;;6305714;22;20051;-54
2023/09/28 06:13:44;;;;;;;58.20;14.68;;;;;;;;;;6305033;22;20016;-53
2023/09/28 06:16:14;;;;;;;48.70;13.77;;;;;;;;;;6277830;22;20025;-50
2023/09/28 06:18:42;;;;;;;78.00;15.07;;;;;;;;;;6277731;22;20106;-52
2023/09/28 06:21:08;;;;;;;63.17;13.40;;;;;;;;;;6305342;22;20011;-53
2023/09/28 06:23:35;;;;;;;129.73;17.77;;;;;;;;;;6279272;22;20026;-53
2023/09/28 06:26:02;;;;;;;66.65;13.55;;;;;;;;;;6307255;22;20011;-52
2023/09/28 06:28:29;;;;;;;48.30;11.65;;;;;;;;;;6279432;22;20049;-55
2023/09/28 06:30:56;;;;;;;29.35;11.40;;;;;;;;;;6306950;22;20016;-52
2023/09/28 06:33:23;;;;;;;44.08;11.00;;;;;;;;;;6279500;22;20026;-53
2023/09/28 06:35:50;;;;;;;65.70;11.18;;;;;;;;;;6279234;22;20019;-52
2023/09/28 06:38:18;;;;;;;49.85;10.23;;;;;;;;;;6254653;22;20015;-54
2023/09/28 06:40:48;;;;;;;40.38;10.13;;;;;;;;;;6279008;22;20023;-54
2023/09/28 06:43:15;;;;;;;40.65;10.07;;;;;;;;;;6279634;22;20061;-56
2023/09/28 06:45:42;;;;;;;55.25;11.05;;;;;;;;;;6279044;22;20015;-53
2023/09/28 06:48:09;;;;;;;57.80;11.57;;;;;;;;;;6279415;22;20015;-53
2023/09/28 06:50:39;;;;;;;80.03;12.52;;;;;;;;;;6279812;22;20037;-52
2023/09/28 06:53:06;;;;;;;47.47;11.40;;;;;;;;;;6306253;22;20011;-54
2023/09/28 06:55:33;;;;;;;53.13;10.63;;;;;;;;;;6278934;22;20068;-54
2023/09/28 06:58:00;;;;;;;50.72;11.02;;;;;;;;;;6278719;22;20109;-53
2023/09/28 07:00:29;;;;;;;38.08;9.27;;;;;;;;;;6279253;22;20061;-53
2023/09/28 07:02:56;;;;;;;37.53;8.80;;;;;;;;;;6279275;22;20019;-54
2023/09/28 07:05:23;;;;;;;40.47;9.43;;;;;;;;;;6307120;22;20012;-52
2023/09/28 07:07:50;;;;;;;38.97;9.48;;;;;;;;;;6306309;22;20068;-54
2023/09/28 07:10:17;;;;;;;44.13;8.95;;;;;;;;;;6305834;22;20556;-54
2023/09/28 07:12:44;;;;;;;53.63;10.63;;;;;;;;;;6279322;22;20015;-53
2023/09/28 07:15:11;;;;;;;47.88;9.32;;;;;;;;;;6278931;22;20054;-55
2023/09/28 07:17:38;;;;;;;102.75;14.05;;;;;;;;;;6306305;22;20015;-54
2023/09/28 07:20:05;;;;;;;58.08;9.48;;;;;;;;;;6306703;22;20016;-51
2023/09/28 07:22:32;;;;;;;47.78;9.90;;;;;;;;;;6278142;22;20047;-54
2023/09/28 07:24:58;;;;;;;94.60;12.57;;;;;;;;;;6278941;22;20023;-54
2023/09/28 07:27:31;;;;;;;47.75;9.63;;;;;;;;;;6305471;22;20019;-53
2023/09/28 07:29:59;;;;;;;52.40;10.88;;;;;;;;;;6278509;22;20482;-58
2023/09/28 07:32:26;;;;;;;37.15;9.50;;;;;;;;;;6306752;22;20455;-52
2023/09/28 07:34:53;;;;;;;80.47;12.13;;;;;;;;;;6298162;22;20110;-52
2023/09/28 07:37:20;;;;;;;75.95;11.68;;;;;;;;;;6309390;22;20064;-51
2023/09/28 07:39:48;;;;;;;57.47;9.60;;;;;;;;;;6335750;22;20075;-54
2023/09/28 07:42:15;;;;;;;78.72;11.10;;;;;;;;;;6308812;22;20030;-53
2023/09/28 07:44:41;;;;;;;111.85;12.65;;;;;;;;;;6336944;22;20017;-53
2023/09/28 07:47:08;;;;;;;65.85;10.07;;;;;;;;;;6337581;22;20578;-55
2023/09/28 07:49:35;;;;;;;36.40;9.70;;;;;;;;;;6309515;22;20057;-51
2023/09/28 07:52:02;;;;;;;41.45;9.05;;;;;;;;;;6309186;22;20046;-53
2023/09/28 07:54:29;;;;;;;42.22;8.82;;;;;;;;;;6337136;22;20011;-54
2023/09/28 07:56:56;;;;;;;41.58;8.55;;;;;;;;;;6336444;22;20014;-53
2023/09/28 07:59:23;;;;;;;46.28;8.15;;;;;;;;;;6335247;22;20022;-57
2023/09/28 08:01:50;;;;;;;44.83;8.52;;;;;;;;;;6309185;22;20379;-53
2023/09/28 08:04:16;;;;;;;33.05;7.53;;;;;;;;;;6336712;22;20445;-51
2023/09/28 08:06:43;;;;;;;49.13;8.93;;;;;;;;;;6309787;22;20065;-53
2023/09/28 08:09:13;;;;;;;50.40;8.68;;;;;;;;;;6309095;22;20383;-51
2023/09/28 08:11:41;;;;;;;71.07;10.50;;;;;;;;;;6309268;22;20381;-52
2023/09/28 08:17:26;;;;;;;38.20;7.78;;;;;;;;;;6337123;22;20531;-53
2023/09/28 08:19:53;;;;;;;49.58;8.90;;;;;;;;;;6308353;22;20022;-53
2023/09/28 08:22:20;;;;;;;38.20;8.38;;;;;;;;;;6336969;22;20580;-53
2023/09/28 08:24:47;;;;;;;68.47;9.85;;;;;;;;;;6309042;22;20015;-57
2023/09/28 08:27:14;;;;;;;66.00;9.18;;;;;;;;;;6308618;22;20018;-54
2023/09/28 08:29:41;;;;;;;93.80;11.00;;;;;;;;;;6335735;22;20034;-52
2023/09/28 08:32:08;;;;;;;46.92;8.23;;;;;;;;;;6336790;22;20022;-53
2023/09/28 08:34:35;;;;;;;49.92;8.20;;;;;;;;;;6336749;22;20422;-51
2023/09/28 08:37:05;;;;;;;36.30;8.07;;;;;;;;;;6308777;22;20021;-53
2023/09/28 08:39:31;;;;;;;33.83;7.50;;;;;;;;;;6336886;22;20014;-52
2023/09/28 08:42:01;;;;;;;51.55;8.32;;;;;;;;;;6309302;22;20018;-56
2023/09/28 08:44:29;;;;;;;55.60;8.95;;;;;;;;;;6337539;22;20499;-55
2023/09/28 08:46:57;;;;;;;58.05;8.35;;;;;;;;;;6308906;22;20523;-56
2023/09/28 08:49:29;;;;;;;40.03;8.10;;;;;;;;;;6336599;22;20015;-51
2023/09/28 08:51:56;;;;;;;65.43;8.55;;;;;;;;;;6336273;22;20341;-54
2023/09/28 08:54:23;;;;;;;50.45;8.00;;;;;;;;;;6336739;22;20011;-53
2023/09/28 08:56:50;;;;;;;46.00;7.30;;;;;;;;;;6336377;22;20051;-54
2023/09/28 08:59:18;;;;;;;26.75;6.82;;;;;;;;;;6337157;22;20041;-58
2023/09/28 09:01:46;;;;;;;36.50;7.85;;;;;;;;;;6309549;22;20019;-51
2023/09/28 09:04:12;;;;;;;22.67;7.13;;;;;;;;;;6309808;22;20025;-52
2023/09/28 09:06:40;;;;;;;33.22;6.72;;;;;;;;;;6336797;22;20076;-52
2023/09/28 09:09:07;;;;;;;44.72;8.45;;;;;;;;;;6309036;22;20015;-52
2023/09/28 09:11:34;;;;;;;47.78;7.68;;;;;;;;;;6336940;22;20007;-53
2023/09/28 09:14:01;;;;;;;81.38;9.85;;;;;;;;;;6310103;22;20038;-52
2023/09/28 09:16:29;;;;;;;129.70;16.08;;;;;;;;;;6308805;22;20441;-55
2023/09/28 09:18:55;;;;;;;36.65;7.10;;;;;;;;;;6283364;22;20019;-55
2023/09/28 09:21:24;;;;;;;39.20;7.30;;;;;;;;;;6336307;22;20015;-53
2023/09/28 09:24:00;;;;;;;37.60;6.88;;;;;;;;;;6309335;22;20092;-55
2023/09/28 09:26:27;;;;;;;32.55;6.53;;;;;;;;;;6337413;22;20010;-52
2023/09/28 09:28:56;;;;;;;40.75;7.72;;;;;;;;;;6336853;22;20021;-53
2023/09/28 09:31:26;;;;;;;29.23;6.15;;;;;;;;;;6309564;22;20484;-53
2023/09/28 09:33:52;;;;;;;35.80;7.05;;;;;;;;;;6309468;22;20081;-54
2023/09/28 09:36:19;;;;;;;54.45;7.30;;;;;;;;;;6336974;22;20042;-55
2023/09/28 09:38:46;;;;;;;84.75;9.90;;;;;;;;;;6336530;22;20034;-59
2023/09/28 09:41:12;;;;;;;31.83;7.20;;;;;;;;;;6337083;22;20069;-55
2023/09/28 09:43:40;;;;;;;105.45;10.57;;;;;;;;;;6336348;22;20022;-54
2023/09/28 09:46:09;;;;;;;44.55;7.47;;;;;;;;;;6308940;22;20090;-54
2023/09/28 09:48:43;;;;;;;124.22;11.98;;;;;;;;;;6336291;22;20014;-54
2023/09/28 09:51:12;;;;;;;97.88;10.85;;;;;;;;;;6308682;22;20022;-53
2023/09/28 09:53:40;;;;;;;100.32;12.43;;;;;;;;;;6336588;22;20723;-53
2023/09/28 09:56:08;;;;;;;49.10;7.60;;;;;;;;;;6283243;22;20015;-54
2023/09/28 09:58:41;;;;;;;46.80;7.65;;;;;;;;;;6337439;22;20081;-55
2023/09/28 10:01:16;;;;;;;44.25;7.90;;;;;;;;;;6311409;22;20018;-54
2023/09/28 10:03:52;;;;;;;48.08;7.18;;;;;;;;;;6338283;22;20105;-53
2023/09/28 10:06:20;;;;;;;38.78;6.63;;;;;;;;;;6311334;22;20010;-56
2023/09/28 10:08:49;;;;;;;76.40;8.43;;;;;;;;;;6338442;22;20094;-58
2023/09/28 10:11:17;;;;;;;37.55;6.50;;;;;;;;;;6338652;22;20023;-54
2023/09/28 10:13:44;;;;;;;51.90;6.78;;;;;;;;;;6338305;22;20006;-59
2023/09/28 10:16:14;;;;;;;114.22;11.30;;;;;;;;;;6338185;22;20093;-53
2023/09/28 10:18:43;;;;;;;84.22;9.38;;;;;;;;;;6337189;22;20045;-54
2023/09/28 10:21:11;;;;;;;48.17;7.10;;;;;;;;;;6285329;22;20032;-53
2023/09/28 10:23:38;;;;;;;48.95;6.93;;;;;;;;;;6285509;22;20057;-54
2023/09/28 10:26:09;;;;;;;20.65;4.90;;;;;;;;;;6338805;22;20087;-53
2023/09/28 10:28:56;;;;;;;45.45;6.28;;;;;;;;;;6310693;22;20061;-56
2023/09/28 10:31:23;;;;;;;34.03;6.40;;;;;;;;;;6337859;22;20347;-51
2023/09/28 10:34:00;;;;;;;45.47;6.75;;;;;;;;;;6310286;22;20019;-56
2023/09/28 10:36:27;;;;;;;36.47;6.28;;;;;;;;;;6338058;22;20014;-52
2023/09/28 10:39:11;;;;;;;58.60;8.48;;;;;;;;;;6337934;22;20049;-52
2023/09/28 10:41:37;;;;;;;;;;;;;;;;;;6285744;22;20053;-55
2023/09/28 10:44:14;;;;;;;35.90;5.97;;;;;;;;;;6310949;22;19918;-53
2023/09/28 10:46:42;;;;;;;49.45;6.90;;;;;;;;;;6310500;22;20399;-54
2023/09/28 10:49:12;;;;;;;39.55;5.88;;;;;;;;;;6310694;22;20090;-53
2023/09/28 10:51:38;;;;;;;43.15;6.72;;;;;;;;;;6337267;22;20336;-53
2023/09/28 10:54:06;;;;;;;185.73;17.00;;;;;;;;;;6310572;22;20019;-54
2023/09/28 10:56:32;;;;;;;53.97;6.93;;;;;;;;;;6338627;22;20021;-60
2023/09/28 10:59:04;;;;;;;40.50;6.10;;;;;;;;;;6311100;22;20093;-52
2023/09/28 11:01:31;;;;;;;23.50;5.35;;;;;;;;;;6310719;22;20112;-50
2023/09/28 11:03:58;;;;;;;33.30;6.18;;;;;;;;;;6310531;22;20025;-55
2023/09/28 11:06:27;;;;;;;44.47;6.10;;;;;;;;;;6338083;22;20090;-53
2023/09/28 11:08:57;;;;;;;49.13;8.48;;;;;;;;;;6337637;22;20084;-53
2023/09/28 11:11:24;;;;;;;13.65;5.43;;;;;;;;;;6338834;22;20459;-54
2023/09/28 11:13:51;;;;;;;39.10;5.68;;;;;;;;;;6310290;22;20340;-51
2023/09/28 11:16:18;;;;;;;30.70;5.75;;;;;;;;;;6337923;22;20015;-57
2023/09/28 11:18:45;;;;;;;110.18;11.32;;;;;;;;;;6337934;22;20467;-54
2023/09/28 11:21:12;;;;;;;101.07;11.18;;;;;;;;;;6310438;22;20019;-54
2023/09/28 11:23:40;;;;;;;74.15;8.63;;;;;;;;;;6338067;22;20156;-54
2023/09/28 11:26:10;;;;;;;44.35;6.28;;;;;;;;;;6310854;22;20110;-55
2023/09/28 11:28:38;;;;;;;32.50;5.88;;;;;;;;;;6337870;22;20018;-53
2023/09/28 11:31:14;;;;;;;31.90;5.47;;;;;;;;;;6337589;22;20038;-53
2023/09/28 11:33:42;;;;;;;36.80;5.70;;;;;;;;;;6338012;22;20042;-54
2023/09/28 11:36:12;;;;;;;49.00;6.90;;;;;;;;;;6284402;22;20378;-53
2023/09/28 11:38:39;;;;;;;68.80;8.32;;;;;;;;;;6337907;22;20026;-53
2023/09/28 11:41:06;;;;;;;33.38;5.72;;;;;;;;;;6337637;22;20064;-56
2023/09/28 11:43:43;;;;;;;32.35;5.75;;;;;;;;;;6337636;22;20019;-52
2023/09/28 11:46:10;;;;;;;17.80;4.45;;;;;;;;;;6310305;22;20022;-54
2023/09/28 11:48:37;;;;;;;37.28;5.82;;;;;;;;;;6310548;22;20023;-53
2023/09/28 11:51:05;;;;;;;31.65;5.57;;;;;;;;;;6310176;22;20015;-52
2023/09/28 11:53:32;;;;;;;35.10;5.53;;;;;;;;;;6338334;22;20014;-52
2023/09/28 11:56:03;;;;;;;39.55;5.97;;;;;;;;;;6337393;22;20018;-53
2023/09/28 11:58:32;;;;;;;34.30;5.90;;;;;;;;;;6310184;22;20030;-52
2023/09/28 12:00:59;;;;;;;140.65;12.55;;;;;;;;;;6337461;22;20018;-56
2023/09/28 12:03:26;;;;;;;29.40;5.72;;;;;;;;;;6337437;22;20035;-58
2023/09/28 12:05:54;;;;;;;48.90;7.22;;;;;;;;;;6309753;22;20043;-57
2023/09/28 12:08:21;;;;;;;28.70;5.18;;;;;;;;;;6310869;22;20022;-54
2023/09/28 12:10:48;;;;;;;34.30;5.78;;;;;;;;;;6310065;22;20010;-54
2023/09/28 12:13:14;;;;;;;25.88;5.75;;;;;;;;;;6310551;22;20060;-54
2023/09/28 12:15:41;;;;;;;51.20;6.65;;;;;;;;;;6311056;22;20015;-55
2023/09/28 12:18:08;;;;;;;37.10;5.82;;;;;;;;;;6339390;22;20022;-55
2023/09/28 12:20:35;;;;;;;43.80;6.53;;;;;;;;;;6310385;22;20023;-59
2023/09/28 12:23:02;;;;;;;53.60;6.57;;;;;;;;;;6338256;22;20508;-58
2023/09/28 12:25:33;;;;;;;21.10;5.43;;;;;;;;;;6338259;22;20019;-56
2023/09/28 12:28:00;;;;;;;30.33;5.05;;;;;;;;;;6311036;22;20065;-53
2023/09/28 12:30:26;;;;;;;27.30;4.90;;;;;;;;;;6310560;22;20098;-57
2023/09/28 12:32:54;;;;;;;85.53;8.32;;;;;;;;;;6338011;22;20401;-56
2023/09/28 12:35:21;;;;;;;26.88;4.22;;;;;;;;;;6338830;22;20064;-57
2023/09/28 12:37:49;;;;;;;39.38;5.05;;;;;;;;;;6310604;22;20029;-57
2023/09/28 12:40:17;;;;;;;26.45;4.97;;;;;;;;;;6338082;22;20026;-55
2023/09/28 12:42:44;;;;;;;50.08;5.38;;;;;;;;;;6310489;22;20459;-57
2023/09/28 12:45:11;;;;;;;22.90;4.43;;;;;;;;;;6338543;22;20022;-55
2023/09/28 12:47:37;;;;;;;42.35;5.07;;;;;;;;;;6338331;22;20552;-63
2023/09/28 12:50:05;;;;;;;267.80;21.35;;;;;;;;;;6311006;22;20101;-56
2023/09/28 12:52:31;;;;;;;44.13;5.43;;;;;;;;;;6310765;22;20019;-53
2023/09/28 12:54:58;;;;;;;40.33;5.38;;;;;;;;;;6337948;22;20019;-56
2023/09/28 12:57:25;;;;;;;42.60;5.95;;;;;;;;;;6337914;22;20215;-55
2023/09/28 12:59:51;;;;;;;65.95;6.43;;;;;;;;;;6310330;22;20030;-53
2023/09/28 13:02:19;;;;;;;28.08;4.30;;;;;;;;;;6310495;22;20026;-55
2023/09/28 13:04:46;;;;;;;40.88;5.53;;;;;;;;;;6338019;22;20019;-55
2023/09/28 13:07:13;;;;;;;33.45;4.65;;;;;;;;;;6310460;22;20101;-55
2023/09/28 13:09:40;;;;;;;43.17;5.55;;;;;;;;;;6337549;22;20014;-55
2023/09/28 13:12:08;;;;;;;32.65;4.88;;;;;;;;;;6337655;22;20086;-55
2023/09/28 13:14:34;;;;;;;113.43;10.43;;;;;;;;;;6310024;22;20026;-56
2023/09/28 13:17:02;;;;;;;80.18;9.32;;;;;;;;;;6337728;22;20029;-54
2023/09/28 13:19:29;;;;;;;46.42;6.32;;;;;;;;;;6337467;22;20064;-55
2023/09/28 13:21:56;;;;;;;60.45;7.13;;;;;;;;;;6336970;22;20038;-56
2023/09/28 13:24:24;;;;;;;49.58;5.88;;;;;;;;;;6336957;22;20017;-53
2023/09/28 13:26:54;;;;;;;64.78;7.18;;;;;;;;;;6337001;22;20015;-54
2023/09/28 13:29:22;;;;;;;119.18;9.93;;;;;;;;;;6310490;22;20027;-54
2023/09/28 13:31:50;;;;;;;114.32;9.98;;;;;;;;;;6337107;22;20093;-58
2023/09/28 13:34:20;;;;;;;29.98;5.10;;;;;;;;;;6338911;22;20006;-55
2023/09/28 13:36:46;;;;;;;92.15;10.93;;;;;;;;;;6339099;22;20022;-55
2023/09/28 13:39:26;;;;;;;69.50;7.72;;;;;;;;;;6338921;22;20046;-54
2023/09/28 13:41:58;;;;;;;52.40;6.60;;;;;;;;;;6310637;22;20030;-57
2023/09/28 13:44:25;;;;;;;400.67;30.08;;;;;;;;;;6285658;22;20022;-58
2023/09/28 13:46:53;;;;;;;49.90;7.80;;;;;;;;;;6338496;22;20046;-51
2023/09/28 13:49:23;;;;;;;42.28;5.47;;;;;;;;;;6310854;22;20014;-55
2023/09/28 13:51:50;;;;;;;35.53;5.55;;;;;;;;;;6338164;22;20021;-53
2023/09/28 13:54:18;;;;;;;40.88;6.97;;;;;;;;;;6311422;22;20452;-54
2023/09/28 13:56:47;;;;;;;89.05;9.13;;;;;;;;;;6310693;22;20014;-54
2023/09/28 13:59:14;;;;;;;54.50;7.05;;;;;;;;;;6311703;22;20022;-53
2023/09/28 14:01:43;;;;;;;42.88;5.53;;;;;;;;;;6311147;22;20019;-51
2023/09/28 14:04:12;;;;;;;38.28;6.32;;;;;;;;;;6311309;22;20015;-51
2023/09/28 14:06:40;;;;;;;38.10;5.88;;;;;;;;;;6311096;22;20050;-52
2023/09/28 14:09:11;;;;;;;36.58;6.15;;;;;;;;;;6310683;22;20011;-59
2023/09/28 14:11:39;;;;;;;30.88;4.93;;;;;;;;;;6338548;22;20019;-56
2023/09/28 14:14:07;;;;;;;46.90;7.03;;;;;;;;;;6311254;22;20076;-57
2023/09/28 14:16:34;;;;;;;29.58;5.15;;;;;;;;;;6310335;22;20033;-53
2023/09/28 14:19:01;;;;;;;51.40;6.32;;;;;;;;;;6338365;22;20018;-54
2023/09/28 14:21:28;;;;;;;68.75;7.45;;;;;;;;;;6338651;22;20015;-55
2023/09/28 14:23:55;;;;;;;110.35;10.93;;;;;;;;;;6310927;22;20014;-55
2023/09/28 14:26:22;;;;;;;76.82;8.65;;;;;;;;;;6310975;22;20110;-54
2023/09/28 14:28:50;;;;;;;70.95;8.25;;;;;;;;;;6310640;22;20119;-52
2023/09/28 14:31:18;;;;;;;40.97;6.15;;;;;;;;;;6337979;22;20382;-52
2023/09/28 14:33:45;;;;;;;33.50;5.60;;;;;;;;;;6310522;22;20385;-50
2023/09/28 14:36:12;;;;;;;60.40;8.05;;;;;;;;;;6338265;22;20060;-51